Time;durP1;ratioP1;P1;durP2;ratioP2;P2;SDS_P1;SDS_P2;PMS_P1;PMS_P2;Temp;Humidity;BMP_temperature;BMP_pressure;BME280_temperature;BME280_humidity;BME280_pressure;Samples;Min_cycle;Max_cycle;Signal;HPM_P1;HPM_P2
2023/03/06 00:00:32;;;;;;;0.60;0.60;;;;;;;1.49;74.93;96100.59;29373;196;63008;-55
2023/03/06 00:01:07;;;;;;;0.60;0.60;;;;;;;1.46;75.09;96097.63;29373;340;63005;-71
2023/03/06 00:01:38;;;;;;;3.17;2.97;;;;;;;1.48;74.61;96106.22;29371;334;64014;-55
2023/03/06 00:02:09;;;;;;;0.60;0.60;;;;;;;1.47;74.86;96102.72;29373;211;63005;-56
2023/03/06 00:02:42;;;;;;;1.67;1.62;;;;;;;1.46;74.63;96100.31;29373;210;63009;-55
2023/03/06 00:03:17;;;;;;;0.60;0.60;;;;;;;1.45;74.87;96101.38;29373;242;63005;-70
2023/03/06 00:03:48;;;;;;;0.60;0.60;;;;;;;1.44;74.84;96100.56;29373;197;63009;-55
2023/03/06 00:04:21;;;;;;;0.60;0.60;;;;;;;1.43;75.13;96100.81;29371;199;64009;-56
2023/03/06 00:04:55;;;;;;;1.50;1.50;;;;;;;1.42;75.10;96099.19;29373;342;63009;-56
2023/03/06 00:05:27;;;;;;;0.60;0.60;;;;;;;1.42;75.58;96104.53;29373;222;63004;-68
2023/03/06 00:05:58;;;;;;;0.60;0.60;;;;;;;1.40;75.72;96104.00;29373;303;63009;-56
2023/03/06 00:06:30;;;;;;;0.70;0.70;;;;;;;1.39;75.88;96094.38;29371;366;64009;-56
2023/03/06 00:07:01;;;;;;;0.57;0.57;;;;;;;1.37;75.60;96104.53;29373;337;63009;-56
2023/03/06 00:07:32;;;;;;;1.55;1.50;;;;;;;1.38;75.43;96103.47;29373;250;63010;-57
2023/03/06 00:08:05;;;;;;;0.60;0.60;;;;;;;1.42;75.70;96093.84;29373;268;63008;-57
2023/03/06 00:08:37;;;;;;;0.70;0.70;;;;;;;1.52;74.94;96093.94;29373;235;63005;-56
2023/03/06 00:09:09;;;;;;;0.75;0.75;;;;;;;1.56;74.91;96095.84;29373;229;63017;-56
2023/03/06 00:09:41;;;;;;;0.60;0.60;;;;;;;1.55;74.65;96091.56;29373;202;63005;-56
2023/03/06 00:10:18;;;;;;;0.60;0.60;;;;;;;1.56;74.82;96089.72;29373;233;63009;-56
2023/03/06 00:10:50;;;;;;;0.50;0.50;;;;;;;1.55;74.64;96088.09;29373;351;63005;-55
2023/03/06 00:11:22;;;;;;;0.60;0.60;;;;;;;1.53;74.25;96085.66;29371;310;64006;-55
2023/03/06 00:11:53;;;;;;;0.60;0.60;;;;;;;1.51;74.68;96084.31;29373;355;63004;-55
2023/03/06 00:12:26;;;;;;;0.60;0.60;;;;;;;1.48;74.91;96087.50;29373;234;63004;-56
2023/03/06 00:13:01;;;;;;;0.60;0.60;;;;;;;1.49;75.04;96083.75;29373;214;63004;-55
2023/03/06 00:13:33;;;;;;;0.50;0.50;;;;;;;1.48;74.70;96093.66;29373;316;63009;-55
2023/03/06 00:14:05;;;;;;;0.60;0.60;;;;;;;1.50;74.83;96080.03;29373;316;63004;-56
2023/03/06 00:14:36;;;;;;;0.60;0.60;;;;;;;1.55;74.20;96078.19;29373;250;63008;-55
2023/03/06 00:15:09;;;;;;;0.73;0.73;;;;;;;1.58;74.31;96087.59;29373;231;63004;-55
2023/03/06 00:15:41;;;;;;;0.60;0.60;;;;;;;1.56;74.31;96084.34;29373;351;63008;-56
2023/03/06 00:16:12;;;;;;;0.60;0.60;;;;;;;1.53;74.21;96083.00;29371;369;64009;-56
2023/03/06 00:16:43;;;;;;;0.60;0.60;;;;;;;1.53;74.02;96084.88;29371;373;64013;-55
2023/03/06 00:17:14;;;;;;;0.60;0.60;;;;;;;1.51;74.34;96081.63;29373;366;63005;-55
2023/03/06 00:17:46;;;;;;;0.60;0.60;;;;;;;1.50;74.24;96080.03;29373;251;63018;-55
2023/03/06 00:18:18;;;;;;;0.60;0.60;;;;;;;1.48;74.64;96082.16;29373;267;63007;-56
2023/03/06 00:18:50;;;;;;;0.60;0.60;;;;;;;1.48;74.37;96076.81;29373;312;63009;-55
2023/03/06 00:19:22;;;;;;;0.60;0.60;;;;;;;1.46;74.52;96078.91;29373;283;63004;-55
2023/03/06 00:19:54;;;;;;;0.60;0.60;;;;;;;1.47;74.52;96077.84;29373;340;63009;-56
2023/03/06 00:20:26;;;;;;;0.60;0.60;;;;;;;1.48;74.45;96076.81;29373;305;63004;-55
2023/03/06 00:21:05;;;;;;;0.60;0.60;;;;;;;1.46;74.21;96081.59;29372;232;63009;-56
2023/03/06 00:21:38;;;;;;;0.60;0.60;;;;;;;1.43;74.32;96079.44;29371;326;64009;-55
2023/03/06 00:22:13;;;;;;;0.60;0.60;;;;;;;1.42;74.06;96075.94;29373;202;63015;-55
2023/03/06 00:22:45;;;;;;;0.60;0.60;;;;;;;1.42;74.50;96067.94;29373;284;63005;-57
2023/03/06 00:23:17;;;;;;;0.60;0.60;;;;;;;1.42;73.96;96073.28;29373;200;63009;-55
2023/03/06 00:23:49;;;;;;;0.60;0.60;;;;;;;1.48;73.88;96066.09;29373;239;63005;-56
2023/03/06 00:24:21;;;;;;;0.60;0.60;;;;;;;1.49;73.49;96073.88;29373;283;63009;-55
2023/03/06 00:24:56;;;;;;;0.60;0.60;;;;;;;1.50;73.52;96069.34;29373;329;63011;-55
2023/03/06 00:25:27;;;;;;;0.60;0.60;;;;;;;1.50;73.69;96066.66;29373;299;63009;-55
2023/03/06 00:25:58;;;;;;;0.60;0.60;;;;;;;1.49;74.15;96065.03;29373;243;63005;-55
2023/03/06 00:26:30;;;;;;;0.60;0.60;;;;;;;1.49;73.67;96063.19;29371;246;64013;-56
2023/03/06 00:27:01;;;;;;;0.60;0.60;;;;;;;1.52;73.60;96064.53;29373;205;63004;-55
2023/03/06 00:27:33;;;;;;;0.60;0.60;;;;;;;1.53;73.53;96058.13;29373;237;63009;-57
2023/03/06 00:28:05;;;;;;;0.60;0.60;;;;;;;1.52;73.16;96061.88;29373;248;63004;-56
2023/03/06 00:28:36;;;;;;;0.60;0.60;;;;;;;1.51;73.35;96060.25;29373;311;63009;-56
2023/03/06 00:29:08;;;;;;;0.60;0.60;;;;;;;1.50;73.58;96058.63;29373;303;63004;-56
2023/03/06 00:29:39;;;;;;;0.60;0.60;;;;;;;1.45;73.54;96059.41;29373;369;63008;-68
2023/03/06 00:30:14;;;;;;;0.60;0.60;;;;;;;1.38;74.04;96056.16;29373;264;63005;-55
2023/03/06 00:30:46;;;;;;;0.60;0.60;;;;;;;1.34;73.93;96060.41;29373;239;63009;-55
2023/03/06 00:31:21;;;;;;;0.60;0.60;;;;;;;1.37;73.97;96059.09;29373;253;63005;-55
2023/03/06 00:31:52;;;;;;;0.52;0.52;;;;;;;1.34;73.88;96058.53;29371;257;64013;-55
2023/03/06 00:32:24;;;;;;;0.60;0.60;;;;;;;1.32;73.92;96063.31;29373;311;63005;-56
2023/03/06 00:32:55;;;;;;;0.60;0.60;;;;;;;1.34;73.56;96050.50;29373;272;63009;-57
2023/03/06 00:33:27;;;;;;;0.50;0.50;;;;;;;1.36;73.70;96052.13;29373;270;63005;-56
2023/03/06 00:33:58;;;;;;;0.60;0.60;;;;;;;1.38;73.27;96060.69;29373;275;63009;-55
2023/03/06 00:34:29;;;;;;;0.60;0.60;;;;;;;1.37;73.71;96056.41;29373;280;63004;-56
2023/03/06 00:35:01;;;;;;;0.60;0.60;;;;;;;1.36;74.03;96057.47;29373;283;63009;-56
2023/03/06 00:35:32;;;;;;;0.70;0.70;;;;;;;1.31;74.13;96053.69;29373;217;63000;-56
2023/03/06 00:36:05;;;;;;;0.60;0.60;;;;;;;1.31;73.89;96055.56;29373;261;63009;-55
2023/03/06 00:36:36;;;;;;;0.60;0.60;;;;;;;1.32;74.11;96057.97;29373;262;63004;-55
2023/03/06 00:37:08;;;;;;;0.60;0.60;;;;;;;1.33;74.12;96054.25;29371;248;64013;-56
2023/03/06 00:37:40;;;;;;;0.60;0.60;;;;;;;1.33;74.17;96048.91;29373;312;63005;-55
2023/03/06 00:38:11;;;;;;;0.60;0.60;;;;;;;1.34;74.00;96049.72;29373;226;63009;-55
2023/03/06 00:38:42;;;;;;;0.50;0.50;;;;;;;1.32;73.95;96049.97;29373;203;63005;-55
2023/03/06 00:39:14;;;;;;;0.60;0.60;;;;;;;1.33;73.97;96053.44;29373;268;63009;-55
2023/03/06 00:39:45;;;;;;;0.60;0.60;;;;;;;1.29;73.84;96047.78;29373;362;63005;-55
2023/03/06 00:40:20;;;;;;;0.57;0.57;;;;;;;1.29;74.03;96049.66;29373;273;63009;-55
2023/03/06 00:40:51;;;;;;;0.60;0.60;;;;;;;1.28;74.40;96051.53;29373;318;63005;-56
2023/03/06 00:41:22;;;;;;;0.60;0.60;;;;;;;1.26;74.19;96053.66;29371;219;64013;-55
2023/03/06 00:41:54;;;;;;;0.60;0.60;;;;;;;1.26;74.61;96053.66;29373;198;63004;-55
2023/03/06 00:42:25;;;;;;;0.60;0.60;;;;;;;1.26;74.60;96059.00;29373;301;63009;-55
2023/03/06 00:42:57;;;;;;;0.70;0.70;;;;;;;1.25;74.37;96049.38;29373;279;63004;-57
2023/03/06 00:43:28;;;;;;;0.60;0.60;;;;;;;1.25;74.85;96052.03;29373;221;63009;-71
2023/03/06 00:43:59;;;;;;;0.60;0.60;;;;;;;1.23;74.51;96051.47;29373;202;63004;-55
2023/03/06 00:44:30;;;;;;;0.60;0.60;;;;;;;1.21;74.62;96050.94;29373;237;63008;-55
2023/03/06 00:45:06;;;;;;;0.60;0.60;;;;;;;1.22;74.67;96057.88;29373;274;63004;-55
2023/03/06 00:45:37;;;;;;;0.50;0.50;;;;;;;1.22;75.16;96052.53;29374;320;63025;-55
2023/03/06 00:46:09;;;;;;;0.60;0.60;;;;;;;1.23;74.90;96051.47;29372;272;64009;-56
2023/03/06 00:46:40;;;;;;;0.60;0.60;;;;;;;1.24;74.83;96045.06;29374;212;63009;-55
2023/03/06 00:47:12;;;;;;;0.70;0.70;;;;;;;1.24;74.79;96038.94;29374;262;63005;-56
2023/03/06 00:47:44;;;;;;;0.60;0.60;;;;;;;1.24;74.65;96047.75;29374;297;63015;-55
2023/03/06 00:48:16;;;;;;;0.75;0.75;;;;;;;1.24;74.56;96050.41;29374;213;63005;-56
2023/03/06 00:48:47;;;;;;;0.60;0.60;;;;;;;1.25;74.75;96045.87;29374;303;63009;-55
2023/03/06 00:49:21;;;;;;;0.60;0.60;;;;;;;1.25;74.63;96035.19;29374;211;63005;-55
2023/03/06 00:49:53;;;;;;;0.60;0.60;;;;;;;1.25;74.86;96049.38;29374;336;63009;-55
2023/03/06 00:50:26;;;;;;;0.60;0.60;;;;;;;1.26;74.85;96037.63;29372;208;64009;-56
2023/03/06 00:50:57;;;;;;;0.60;0.60;;;;;;;1.28;74.84;96040.84;29373;197;63009;-55
2023/03/06 00:51:28;;;;;;;0.57;0.57;;;;;;;1.29;74.36;96037.09;29374;360;63009;-55
2023/03/06 00:52:00;;;;;;;0.60;0.60;;;;;;;1.30;74.28;96033.38;29372;227;64013;-56
2023/03/06 00:52:31;;;;;;;0.60;0.60;;;;;;;1.30;74.03;96038.72;29374;326;63004;-55
2023/03/06 00:53:03;;;;;;;0.60;0.60;;;;;;;1.31;74.25;96045.69;29374;246;63017;-56
2023/03/06 00:53:34;;;;;;;0.60;0.60;;;;;;;1.30;74.12;96041.38;29374;365;63005;-55
2023/03/06 00:54:06;;;;;;;0.60;0.60;;;;;;;1.30;74.04;96038.72;29372;197;64014;-55
2023/03/06 00:54:37;;;;;;;0.60;0.60;;;;;;;1.31;74.60;96034.97;29374;220;63005;-55
2023/03/06 00:55:09;;;;;;;0.60;0.60;;;;;;;1.30;74.46;96033.38;29374;317;63009;-55
2023/03/06 00:55:44;;;;;;;0.60;0.60;;;;;;;1.31;74.42;96034.19;29374;220;63005;-55
2023/03/06 00:56:15;;;;;;;2.20;2.12;;;;;;;1.33;74.07;96034.72;29372;249;64013;-55
2023/03/06 00:56:46;;;;;;;0.60;0.60;;;;;;;1.33;74.15;96037.41;29374;216;63005;-55
2023/03/06 00:57:18;;;;;;;0.50;0.50;;;;;;;1.32;74.01;96039.28;29374;254;63009;-56
2023/03/06 00:57:49;;;;;;;0.50;0.50;;;;;;;1.34;74.44;96033.66;29374;347;63004;-55
2023/03/06 00:58:20;;;;;;;0.60;0.60;;;;;;;1.34;74.05;96033.66;29374;261;63009;-55
2023/03/06 00:58:51;;;;;;;0.60;0.60;;;;;;;1.34;74.20;96033.66;29374;208;63004;-56
2023/03/06 00:59:22;;;;;;;0.60;0.60;;;;;;;1.33;74.10;96038.22;29372;231;64013;-55
2023/03/06 00:59:54;;;;;;;0.60;0.60;;;;;;;1.32;74.25;96038.47;29373;218;64004;-55
2023/03/06 01:00:26;;;;;;;0.60;0.60;;;;;;;1.30;74.36;96038.72;29374;196;63009;-55
2023/03/06 01:00:57;;;;;;;0.50;0.50;;;;;;;1.31;74.04;96034.97;29374;266;63008;-55
2023/03/06 01:01:28;;;;;;;0.70;0.70;;;;;;;1.29;74.25;96031.75;29372;263;64014;-68
2023/03/06 01:01:59;;;;;;;0.60;0.60;;;;;;;1.28;74.60;96035.50;29374;306;63005;-69
2023/03/06 01:02:31;;;;;;;0.70;0.70;;;;;;;1.28;74.43;96032.81;29375;222;63009;-55
2023/03/06 01:03:02;;;;;;;0.60;0.60;;;;;;;1.27;74.68;96033.88;29374;202;63005;-55
2023/03/06 01:03:34;;;;;;;0.60;0.60;;;;;;;1.27;74.57;96028.53;29374;266;63009;-55
2023/03/06 01:04:05;;;;;;;7.37;4.97;;;;;;;1.30;74.56;96028.03;29374;364;63000;-55
2023/03/06 01:04:37;;;;;;;0.60;0.60;;;;;;;1.32;74.27;96030.44;29374;320;63016;-56
2023/03/06 01:05:11;;;;;;;0.60;0.60;;;;;;;1.31;74.37;96029.63;29374;351;63004;-56
2023/03/06 01:05:42;;;;;;;3.60;3.25;;;;;;;1.31;73.93;96026.97;29374;323;63009;-55
2023/03/06 01:06:13;;;;;;;0.60;0.60;;;;;;;1.31;73.97;96029.63;29372;270;64009;-55
2023/03/06 01:06:44;;;;;;;0.80;0.80;;;;;;;1.33;73.99;96027.53;29374;282;63015;-55
2023/03/06 01:07:16;;;;;;;0.60;0.60;;;;;;;1.32;74.06;96031.25;29374;247;63004;-55
2023/03/06 01:07:47;;;;;;;0.60;0.60;;;;;;;1.30;73.88;96028.03;29374;226;63008;-55
2023/03/06 01:08:22;;;;;;;0.60;0.60;;;;;;;1.29;73.81;96025.59;29372;218;64009;-57
2023/03/06 01:08:53;;;;;;;0.60;0.60;;;;;;;1.28;74.26;96024.81;29374;297;63009;-55
2023/03/06 01:09:28;;;;;;;0.60;0.60;;;;;;;1.28;74.15;96024.81;29374;343;63005;-56
2023/03/06 01:09:59;;;;;;;0.60;0.60;;;;;;;1.28;74.09;96018.66;29374;204;63009;-55
2023/03/06 01:10:31;;;;;;;0.60;0.60;;;;;;;1.27;74.35;96027.72;29374;355;63005;-55
2023/03/06 01:11:05;;;;;;;0.60;0.60;;;;;;;1.25;74.28;96022.63;29374;262;63009;-55
2023/03/06 01:11:36;;;;;;;0.60;0.60;;;;;;;1.24;74.67;96023.69;29373;360;63010;-56
2023/03/06 01:12:08;;;;;;;0.60;0.60;;;;;;;1.26;74.61;96020.78;29374;197;63015;-56
2023/03/06 01:12:40;;;;;;;1.17;1.17;;;;;;;1.27;74.72;96022.37;29374;249;63004;-55
2023/03/06 01:13:11;;;;;;;0.62;0.62;;;;;;;1.26;75.05;96016.22;29374;355;63009;-55
2023/03/06 01:13:43;;;;;;;3.90;3.80;;;;;;;1.26;74.89;96021.56;29372;282;64009;-70
2023/03/06 01:14:17;;;;;;;0.60;0.60;;;;;;;1.25;74.84;96011.12;29374;333;63014;-55
2023/03/06 01:14:49;;;;;;;0.60;0.60;;;;;;;1.25;74.54;96008.47;29374;329;63010;-55
2023/03/06 01:15:21;;;;;;;0.60;0.60;;;;;;;1.24;74.47;96022.87;29374;196;63008;-55
2023/03/06 01:15:53;;;;;;;0.60;0.60;;;;;;;1.22;74.46;96020.47;29372;214;64009;-56
2023/03/06 01:16:24;;;;;;;0.60;0.60;;;;;;;1.22;74.67;96020.47;29374;220;63009;-55
2023/03/06 01:16:55;;;;;;;0.60;0.60;;;;;;;1.21;74.67;96016.19;29374;345;63005;-55
2023/03/06 01:17:26;;;;;;;0.60;0.60;;;;;;;1.21;74.62;96010.84;29372;300;64013;-55
2023/03/06 01:17:57;;;;;;;0.60;0.60;;;;;;;1.22;74.57;96017.00;29374;335;63002;-68
2023/03/06 01:18:29;;;;;;;0.60;0.60;;;;;;;1.22;75.09;96014.31;29373;202;64009;-55
2023/03/06 01:19:00;;;;;;;0.60;0.60;;;;;;;1.21;74.59;96018.84;29374;243;63004;-70
2023/03/06 01:19:31;;;;;;;0.60;0.60;;;;;;;1.20;74.96;96011.91;29373;229;63009;-56
2023/03/06 01:20:03;;;;;;;0.60;0.60;;;;;;;1.20;74.74;96011.91;29374;328;63004;-55
2023/03/06 01:20:34;;;;;;;0.60;0.60;;;;;;;1.21;74.80;96018.84;29374;202;63009;-55
2023/03/06 01:21:07;;;;;;;1.05;1.05;;;;;;;1.22;74.52;96015.13;29375;202;63010;-55
2023/03/06 01:21:38;;;;;;;0.60;0.60;;;;;;;1.21;74.73;96013.50;29375;326;63008;-55
2023/03/06 01:22:10;;;;;;;0.60;0.60;;;;;;;1.22;74.84;96017.81;29375;295;63004;-57
2023/03/06 01:22:41;;;;;;;2.35;2.25;;;;;;;1.23;74.69;96018.59;29373;332;64013;-55
2023/03/06 01:23:12;;;;;;;0.60;0.60;;;;;;;1.23;74.93;96018.59;29375;251;63005;-55
2023/03/06 01:23:44;;;;;;;0.60;0.60;;;;;;;1.25;74.94;96014.63;29375;204;63009;-55
2023/03/06 01:24:15;;;;;;;0.60;0.60;;;;;;;1.27;75.08;96017.84;29375;197;63005;-55
2023/03/06 01:24:47;;;;;;;0.60;0.60;;;;;;;1.26;74.99;96016.22;29373;202;64013;-55
2023/03/06 01:25:18;;;;;;;0.60;0.60;;;;;;;1.26;74.47;96016.22;29375;200;63017;-69
2023/03/06 01:25:50;;;;;;;0.60;0.60;;;;;;;1.25;74.92;96017.28;29375;291;63009;-56
2023/03/06 01:26:21;;;;;;;0.60;0.60;;;;;;;1.25;74.57;96017.28;29375;366;63004;-55
2023/03/06 01:26:52;;;;;;;0.60;0.60;;;;;;;1.23;74.38;96016.75;29375;211;63009;-55
2023/03/06 01:27:26;;;;;;;0.60;0.60;;;;;;;1.23;74.65;96011.41;29373;366;64009;-69
2023/03/06 01:27:58;;;;;;;0.60;0.60;;;;;;;1.22;74.75;96014.31;29375;222;63009;-69
2023/03/06 01:28:36;;;;;;;0.60;0.60;;;;;;;1.20;74.50;96005.75;29375;217;63004;-56
2023/03/06 01:29:11;;;;;;;0.60;0.60;;;;;;;1.20;74.57;96016.44;29376;196;63008;-55
2023/03/06 01:29:42;;;;;;;1.85;1.85;;;;;;;1.20;74.91;96011.09;29376;208;63005;-55
2023/03/06 01:30:14;;;;;;;0.60;0.60;;;;;;;1.21;74.53;96008.16;29376;200;63009;-56
2023/03/06 01:30:45;;;;;;;0.60;0.60;;;;;;;1.21;74.51;96004.69;29376;204;63005;-55
2023/03/06 01:31:16;;;;;;;0.60;0.60;;;;;;;1.22;74.47;96003.62;29376;251;63009;-55
2023/03/06 01:31:48;;;;;;;0.60;0.60;;;;;;;1.22;74.55;96009.78;29374;308;64009;-55
2023/03/06 01:32:20;;;;;;;0.57;0.57;;;;;;;1.21;74.60;96002.81;29374;231;64013;-55
2023/03/06 01:32:51;;;;;;;0.60;0.60;;;;;;;1.20;74.73;96003.88;29376;202;63016;-55
2023/03/06 01:33:23;;;;;;;0.60;0.60;;;;;;;1.20;74.93;96005.75;29376;310;63009;-55
2023/03/06 01:33:55;;;;;;;0.60;0.60;;;;;;;1.20;74.73;96006.56;29376;203;63004;-55
2023/03/06 01:34:26;;;;;;;0.60;0.60;;;;;;;1.23;74.34;96003.38;29376;334;63004;-55
2023/03/06 01:34:57;;;;;;;0.60;0.60;;;;;;;1.25;73.98;96009.28;29375;338;64004;-55
2023/03/06 01:35:28;;;;;;;0.60;0.60;;;;;;;1.26;74.12;96008.22;29376;232;63009;-55
2023/03/06 01:36:04;;;;;;;0.50;0.50;;;;;;;1.24;74.63;96002.31;29376;237;63004;-55
2023/03/06 01:36:36;;;;;;;0.70;0.70;;;;;;;1.24;74.56;96005.00;29376;226;63008;-55
2023/03/06 01:37:07;;;;;;;0.60;0.60;;;;;;;1.22;74.67;95999.09;29374;296;64008;-55
2023/03/06 01:37:40;;;;;;;0.60;0.60;;;;;;;1.23;74.78;96010.59;29376;375;63009;-57
2023/03/06 01:38:11;;;;;;;0.60;0.60;;;;;;;1.23;74.77;96005.25;29376;297;63005;-55
2023/03/06 01:38:42;;;;;;;0.60;0.60;;;;;;;1.24;74.89;96001.50;29376;324;63009;-57
2023/03/06 01:39:13;;;;;;;0.60;0.60;;;;;;;1.24;74.89;96004.19;29376;243;63005;-56
2023/03/06 01:39:45;;;;;;;0.60;0.60;;;;;;;1.24;75.17;96001.50;29376;210;63009;-55
2023/03/06 01:40:17;;;;;;;0.60;0.60;;;;;;;1.23;74.97;95999.91;29376;202;63005;-55
2023/03/06 01:40:48;;;;;;;0.60;0.60;;;;;;;1.21;74.73;95997.47;29376;200;63009;-55
2023/03/06 01:41:20;;;;;;;0.52;0.52;;;;;;;1.20;75.06;96001.22;29376;221;63005;-55
2023/03/06 01:41:54;;;;;;;0.60;0.60;;;;;;;1.22;74.76;96004.44;29374;380;64013;-67
2023/03/06 01:42:29;;;;;;;0.60;0.60;;;;;;;1.22;74.56;95999.09;29376;277;63004;-55
2023/03/06 01:43:36;;;;;;;3.25;3.15;;;;;;;1.22;74.76;95999.09;29375;202;63009;-56
2023/03/06 01:44:10;;;;;;;0.60;0.60;;;;;;;1.20;74.43;95995.88;29376;280;63008;-70
2023/03/06 01:45:25;;;;;;;0.60;0.60;;;;;;;1.20;74.56;95990.53;29375;277;63010;-55
2023/03/06 01:46:40;;;;;;;0.60;0.60;;;;;;;1.21;74.84;95989.47;29376;365;63005;-66
2023/03/06 01:47:11;;;;;;;0.60;0.60;;;;;;;1.24;74.06;95993.50;29373;222;64009;-55
2023/03/06 01:47:44;;;;;;;0.60;0.60;;;;;;;1.25;73.92;95987.09;29375;203;63009;-73
2023/03/06 01:48:17;;;;;;;0.60;0.60;;;;;;;1.23;73.83;95990.03;29375;258;63005;-69
2023/03/06 01:48:54;;;;;;;0.60;0.60;;;;;;;1.22;73.95;95993.75;29375;246;63009;-69
2023/03/06 01:49:30;;;;;;;0.60;0.60;;;;;;;1.21;73.95;95989.47;29375;226;63004;-56
2023/03/06 01:50:03;;;;;;;0.60;0.60;;;;;;;1.21;73.76;95991.34;29375;222;63021;-55
2023/03/06 01:50:35;;;;;;;0.60;0.60;;;;;;;1.20;73.86;95985.19;29373;199;64009;-55
2023/03/06 01:51:10;;;;;;;0.60;0.60;;;;;;;1.21;73.72;95992.13;29375;258;63009;-55
2023/03/06 01:52:06;;;;;;;0.60;0.60;;;;;;;1.20;74.17;95985.19;29375;211;63004;-56
2023/03/06 01:52:50;;;;;;;0.60;0.60;;;;;;;1.19;74.23;95988.91;29375;254;63017;-55
2023/03/06 01:53:21;;;;;;;0.55;0.55;;;;;;;1.19;74.29;95982.75;29375;208;63011;-57
2023/03/06 01:53:53;;;;;;;0.60;0.60;;;;;;;1.17;74.20;95979.53;29375;233;63009;-56
2023/03/06 01:54:33;;;;;;;0.60;0.60;;;;;;;1.17;74.33;95984.87;29375;211;63005;-55
2023/03/06 01:55:12;;;;;;;0.60;0.60;;;;;;;1.17;74.15;95980.34;29375;308;63009;-55
2023/03/06 01:55:43;;;;;;;0.55;0.55;;;;;;;1.18;74.03;95978.47;29373;245;64009;-55
2023/03/06 01:56:15;;;;;;;0.60;0.60;;;;;;;1.16;73.94;95986.75;29375;252;63009;-55
2023/03/06 01:56:50;;;;;;;0.60;0.60;;;;;;;1.17;74.25;95980.34;29375;312;63004;-71
2023/03/06 01:57:26;;;;;;;0.60;0.60;;;;;;;1.19;74.46;95988.09;29373;258;64013;-55
2023/03/06 01:58:02;;;;;;;0.60;0.60;;;;;;;1.17;73.95;95985.69;29375;216;63004;-55
2023/03/06 01:58:34;;;;;;;0.60;0.60;;;;;;;1.17;74.00;95975.00;29373;255;64013;-70
2023/03/06 01:59:06;;;;;;;0.60;0.60;;;;;;;1.20;73.85;95984.37;29375;239;63004;-55
2023/03/06 01:59:41;;;;;;;0.60;0.60;;;;;;;1.22;74.16;95982.25;29373;284;64013;-55
2023/03/06 02:00:18;;;;;;;0.60;0.60;;;;;;;1.23;73.92;95984.69;29375;219;63005;-68
2023/03/06 02:00:49;;;;;;;0.60;0.60;;;;;;;1.23;73.93;95982.00;29375;209;63009;-55
2023/03/06 02:01:21;;;;;;;0.60;0.60;;;;;;;1.24;73.84;95975.59;29375;199;63005;-55
2023/03/06 02:01:55;;;;;;;0.60;0.60;;;;;;;1.23;73.57;95973.97;29375;325;63009;-55
2023/03/06 02:02:27;;;;;;;0.60;0.60;;;;;;;1.23;73.48;95979.31;29375;245;63005;-55
2023/03/06 02:03:14;;;;;;;0.57;0.57;;;;;;;1.23;73.83;95976.66;29375;331;63017;-56
2023/03/06 02:03:50;;;;;;;0.60;0.60;;;;;;;1.23;73.64;95976.66;29373;366;64009;-56
2023/03/06 02:04:24;;;;;;;0.62;0.62;;;;;;;1.24;73.88;95975.59;29373;332;64013;-55
2023/03/06 02:04:57;;;;;;;0.60;0.60;;;;;;;1.25;73.89;95965.72;29375;211;63007;-55
2023/03/06 02:05:28;;;;;;;0.60;0.60;;;;;;;1.24;73.71;95978.28;29375;245;63013;-56
2023/03/06 02:06:00;;;;;;;0.60;0.60;;;;;;;1.24;73.74;95974.78;29375;202;63004;-56
2023/03/06 02:06:37;;;;;;;0.60;0.60;;;;;;;1.22;73.72;95971.56;29373;212;64013;-57
2023/03/06 02:07:14;;;;;;;0.60;0.60;;;;;;;1.20;73.44;95961.13;29375;323;63017;-55
2023/03/06 02:07:49;;;;;;;0.90;0.90;;;;;;;1.18;73.66;95971.28;29375;206;63009;-56
2023/03/06 02:08:25;;;;;;;0.60;0.60;;;;;;;1.16;73.41;95964.56;29375;291;63005;-72
2023/03/06 02:08:57;;;;;;;0.80;0.80;;;;;;;1.13;73.69;95963.22;29373;334;64014;-55
2023/03/06 02:09:29;;;;;;;0.60;0.60;;;;;;;1.12;74.08;95966.94;29375;216;63005;-55
2023/03/06 02:10:01;;;;;;;0.60;0.60;;;;;;;1.10;74.75;95969.06;29375;212;63018;-56
2023/03/06 02:10:32;;;;;;;0.50;0.50;;;;;;;1.09;74.67;95970.13;29375;209;63005;-55
2023/03/06 02:11:23;;;;;;;0.60;0.60;;;;;;;1.08;74.39;95967.69;29375;320;63009;-56
2023/03/06 02:11:55;;;;;;;0.60;0.60;;;;;;;1.07;74.43;95964.22;29397;226;63004;-56
2023/03/06 02:12:27;;;;;;;0.60;0.60;;;;;;;1.06;74.64;95962.63;29396;278;63009;-55
2023/03/06 02:12:59;;;;;;;0.60;0.60;;;;;;;1.05;74.38;95958.34;29373;198;64009;-68
2023/03/06 02:13:31;;;;;;;0.60;0.60;;;;;;;1.04;74.46;95948.72;29375;216;63009;-56
2023/03/06 02:14:03;;;;;;;0.60;0.60;;;;;;;1.04;74.68;95959.38;29375;206;63004;-55
2023/03/06 02:14:35;;;;;;;0.60;0.60;;;;;;;1.02;74.40;95960.75;29373;339;64013;-56
2023/03/06 02:15:07;;;;;;;0.60;0.60;;;;;;;1.00;74.77;95959.13;29376;298;63005;-55
2023/03/06 02:15:39;;;;;;;0.60;0.60;;;;;;;0.98;75.43;95955.91;29375;259;63025;-55
2023/03/06 02:16:11;;;;;;;0.60;0.60;;;;;;;0.97;75.17;95956.16;29375;218;63005;-72
2023/03/06 02:16:43;;;;;;;0.60;0.60;;;;;;;0.97;75.67;95953.47;29375;228;63009;-55
2023/03/06 02:17:17;;;;;;;0.60;0.60;;;;;;;0.96;75.37;95962.56;29375;346;63005;-55
2023/03/06 02:17:50;;;;;;;0.60;0.60;;;;;;;0.96;75.53;95957.22;29375;305;63009;-56
2023/03/06 02:18:22;;;;;;;0.60;0.60;;;;;;;0.95;75.63;95958.28;29373;350;64009;-55
2023/03/06 02:18:55;;;;;;;0.60;0.60;;;;;;;0.95;75.36;95964.41;29375;215;63009;-55
2023/03/06 02:19:42;;;;;;;0.50;0.50;;;;;;;0.95;75.74;95959.06;29375;324;63004;-56
2023/03/06 02:20:25;;;;;;;0.60;0.60;;;;;;;0.94;75.64;95957.47;29375;283;63009;-55
2023/03/06 02:21:02;;;;;;;0.60;0.60;;;;;;;0.95;75.48;95955.59;29375;207;63004;-55
2023/03/06 02:21:36;;;;;;;0.60;0.60;;;;;;;0.94;75.54;95956.66;29375;281;63009;-55
2023/03/06 02:22:10;;;;;;;0.60;0.60;;;;;;;0.91;75.01;95951.81;29375;248;63004;-71
2023/03/06 02:23:10;;;;;;;0.60;0.60;;;;;;;0.91;75.22;95955.31;29375;327;63009;-57
2023/03/06 02:24:26;;;;;;;0.60;0.60;;;;;;;0.90;75.24;95952.88;29373;198;64009;-56
2023/03/06 02:25:08;;;;;;;0.60;0.60;;;;;;;0.91;75.20;95954.50;29375;232;63009;-55
2023/03/06 02:25:46;;;;;;;0.60;0.60;;;;;;;0.90;75.23;95950.22;29375;229;63005;-56
2023/03/06 02:26:21;;;;;;;0.60;0.60;;;;;;;0.90;74.90;95952.88;29397;286;63009;-55
2023/03/06 02:26:53;;;;;;;0.60;0.60;;;;;;;0.89;74.55;95948.59;29396;215;63007;-56
2023/03/06 02:27:27;;;;;;;0.60;0.60;;;;;;;0.89;74.78;95940.59;29375;224;63009;-55
2023/03/06 02:27:59;;;;;;;0.60;0.60;;;;;;;0.88;74.96;95947.78;29373;202;64009;-55
2023/03/06 02:28:30;;;;;;;0.60;0.60;;;;;;;0.88;74.52;95944.31;29376;202;63008;-56
2023/03/06 02:29:02;;;;;;;0.60;0.60;;;;;;;0.89;74.94;95945.94;29375;244;63004;-55
2023/03/06 02:29:34;;;;;;;0.60;0.60;;;;;;;0.89;74.48;95945.94;29375;210;63008;-55
2023/03/06 02:30:08;;;;;;;0.60;0.60;;;;;;;0.88;74.14;95945.13;29373;222;64009;-71
2023/03/06 02:30:42;;;;;;;0.60;0.60;;;;;;;0.88;74.56;95944.31;29374;340;64009;-55
2023/03/06 02:31:23;;;;;;;0.60;0.60;;;;;;;0.87;74.65;95938.16;29375;212;63005;-72
2023/03/06 02:31:54;;;;;;;;;;;;;;;0.86;74.85;95936.56;29975;982;26198;-55
2023/03/06 02:32:27;;;;;;;0.60;0.60;;;;;;;0.86;74.59;95941.09;29423;315;63009;-56
2023/03/06 02:32:58;;;;;;;0.60;0.60;;;;;;;0.85;74.46;95939.47;29397;290;63005;-55
2023/03/06 02:33:29;;;;;;;0.60;0.60;;;;;;;0.85;74.77;95940.28;29375;247;63009;-55
2023/03/06 02:34:58;;;;;;;0.60;0.60;;;;;;;0.87;74.52;95937.38;29375;337;63004;-69
2023/03/06 02:35:32;;;;;;;0.60;0.60;;;;;;;0.88;74.91;95937.13;29372;253;64013;-55
2023/03/06 02:36:09;;;;;;;0.60;0.60;;;;;;;0.88;74.84;95938.97;29375;234;63015;-55
2023/03/06 02:36:54;;;;;;;0.60;0.60;;;;;;;0.90;74.83;95934.19;29373;226;63008;-70
2023/03/06 02:37:27;;;;;;;0.60;0.60;;;;;;;0.91;74.79;95927.78;29374;249;63005;-53
2023/03/06 02:38:04;;;;;;;0.70;0.70;;;;;;;0.91;74.66;95927.78;29372;216;64014;-70
2023/03/06 02:38:49;;;;;;;0.60;0.60;;;;;;;0.94;74.73;95927.28;29373;253;63005;-55
2023/03/06 02:39:27;;;;;;;0.60;0.60;;;;;;;0.95;74.21;95920.88;29373;199;63009;-55
2023/03/06 02:40:08;;;;;;;0.60;0.60;;;;;;;0.94;74.15;95922.75;29373;301;63005;-66
2023/03/06 02:40:43;;;;;;;0.60;0.60;;;;;;;0.98;74.17;95923.03;29371;196;64013;-71
2023/03/06 02:41:15;;;;;;;0.60;0.60;;;;;;;0.98;74.13;95923.84;29373;211;63004;-56
2023/03/06 02:41:46;;;;;;;0.60;0.60;;;;;;;1.00;74.33;95931.59;29373;268;63009;-56
2023/03/06 02:42:20;;;;;;;0.60;0.60;;;;;;;1.02;73.94;95928.69;29373;207;63004;-55
2023/03/06 02:42:57;;;;;;;0.60;0.60;;;;;;;1.01;73.93;95933.22;29373;216;63009;-55
2023/03/06 02:43:32;;;;;;;0.60;0.60;;;;;;;1.04;73.82;95921.22;29373;212;63004;-55